createdAt,value
2018-05-18T00:02:33.840Z,13.40
2018-05-18T00:06:06.335Z,13.57
2018-05-18T00:09:38.835Z,14.03
2018-05-18T00:13:12.092Z,13.20
2018-05-18T00:16:44.574Z,14.23
2018-05-18T00:20:23.733Z,14.90
2018-05-18T00:23:56.223Z,13.80
2018-05-18T00:27:28.722Z,14.13
2018-05-18T00:31:01.992Z,14.63
2018-05-18T00:34:34.489Z,14.60
2018-05-18T00:38:07.029Z,13.57
2018-05-18T00:41:39.517Z,14.60
2018-05-18T00:45:12.010Z,13.77
2018-05-18T00:48:44.505Z,13.93
2018-05-18T00:52:17.009Z,14.30
2018-05-18T00:55:50.268Z,13.90
2018-05-18T00:59:22.775Z,11.90
2018-05-18T01:02:55.264Z,13.37
2018-05-18T01:06:27.748Z,14.67
2018-05-18T01:10:00.247Z,15.07
2018-05-18T01:13:33.504Z,14.80
2018-05-18T01:17:06.018Z,14.13
2018-05-18T01:20:39.279Z,13.13
2018-05-18T01:24:11.777Z,12.47
2018-05-18T01:27:44.281Z,14.57
2018-05-18T01:31:16.769Z,14.67
2018-05-18T01:34:50.030Z,14.67
2018-05-18T01:38:22.517Z,12.53
2018-05-18T01:41:55.002Z,13.60
2018-05-18T01:45:27.484Z,13.47
2018-05-18T01:48:59.987Z,13.40
2018-05-18T01:52:32.481Z,14.03
2018-05-18T01:56:04.983Z,14.20
2018-05-18T01:59:37.467Z,14.73
2018-05-18T02:03:09.963Z,13.17
2018-05-18T02:06:42.463Z,14.40
2018-05-18T02:10:14.950Z,12.50
2018-05-18T02:13:47.433Z,13.97
2018-05-18T02:17:19.921Z,13.97
2018-05-18T02:20:52.425Z,13.17
2018-05-18T02:24:24.905Z,13.10
2018-05-18T02:27:57.395Z,13.17
2018-05-18T02:31:29.890Z,14.07
2018-05-18T02:35:02.401Z,14.40
2018-05-18T02:38:34.908Z,12.23
2018-05-18T02:42:07.411Z,12.30
2018-05-18T02:45:39.908Z,14.00
2018-05-18T02:49:13.158Z,12.87
2018-05-18T02:52:45.656Z,11.77
2018-05-18T02:56:18.153Z,12.50
2018-05-18T02:59:50.641Z,13.07
2018-05-18T03:03:23.183Z,11.83
2018-05-18T03:06:55.703Z,13.87
2018-05-18T03:10:28.223Z,15.80
2018-05-18T03:14:00.731Z,13.80
2018-05-18T03:17:33.226Z,13.47
2018-05-18T03:21:05.814Z,12.43
2018-05-18T03:24:38.226Z,13.10
2018-05-18T03:28:10.713Z,12.67
2018-05-18T03:31:43.194Z,12.43
2018-05-18T03:35:16.440Z,13.10
2018-05-18T03:38:48.924Z,13.70
2018-05-18T03:42:21.415Z,12.83
2018-05-18T03:45:53.910Z,13.63
2018-05-18T03:49:26.406Z,13.20
2018-05-18T03:52:58.913Z,13.50
2018-05-18T03:56:31.415Z,13.30
2018-05-18T04:00:03.892Z,13.23
2018-05-18T04:03:48.061Z,12.63
2018-05-18T04:07:33.292Z,13.43
2018-05-18T04:11:05.788Z,13.27
2018-05-18T04:14:39.050Z,13.33
2018-05-18T04:18:11.568Z,12.97
2018-05-18T04:21:44.829Z,13.27
2018-05-18T04:25:17.313Z,12.07
2018-05-18T04:28:49.811Z,12.30
2018-05-18T04:32:22.322Z,12.63
2018-05-18T04:35:54.837Z,12.10
2018-05-18T04:39:27.336Z,12.90
2018-05-18T04:42:59.862Z,12.80
2018-05-18T04:46:32.378Z,13.23
2018-05-18T04:50:04.861Z,13.37
2018-05-18T04:53:37.357Z,13.07
2018-05-18T04:57:11.344Z,12.93
2018-05-18T05:00:43.913Z,12.83
2018-05-18T05:04:16.804Z,13.77
2018-05-18T05:07:49.357Z,14.50
2018-05-18T05:11:21.855Z,13.23
2018-05-18T05:14:54.333Z,14.97
2018-05-18T05:18:26.823Z,14.40
2018-05-18T05:21:59.316Z,13.33
2018-05-18T05:25:31.797Z,13.40
2018-05-18T05:29:04.293Z,14.00
2018-05-18T05:32:37.562Z,14.47
2018-05-18T05:36:10.086Z,12.73
2018-05-18T05:39:42.581Z,14.03
2018-05-18T05:43:15.173Z,14.33
2018-05-18T05:46:47.702Z,13.70
2018-05-18T05:50:20.304Z,12.73
2018-05-18T05:53:52.810Z,14.83
2018-05-18T05:57:25.332Z,13.17
2018-05-18T06:00:57.924Z,14.07
2018-05-18T06:04:30.408Z,13.33
2018-05-18T06:08:02.905Z,13.60
2018-05-18T06:11:35.403Z,14.77
2018-05-18T06:15:07.927Z,13.10
2018-05-18T06:18:40.414Z,14.77
2018-05-18T06:22:12.920Z,13.70
2018-05-18T06:25:45.417Z,12.40
2018-05-18T06:29:17.905Z,11.60
2018-05-18T06:32:50.508Z,13.50
2018-05-18T06:36:23.009Z,14.50
2018-05-18T06:39:55.497Z,13.07
2018-05-18T06:43:27.986Z,15.27
2018-05-18T06:47:00.467Z,16.20
2018-05-18T06:50:32.966Z,13.67
2018-05-18T06:54:05.457Z,15.03
2018-05-18T06:57:37.974Z,15.63
2018-05-18T07:01:11.248Z,14.83
2018-05-18T07:04:43.767Z,13.37
2018-05-18T07:08:16.268Z,13.83
2018-05-18T07:11:48.769Z,15.40
2018-05-18T07:15:21.274Z,14.60
2018-05-18T07:18:53.782Z,15.13
2018-05-18T07:22:27.057Z,13.20
2018-05-18T07:25:59.561Z,12.93
2018-05-18T07:29:32.816Z,14.90
2018-05-18T07:33:05.308Z,16.30
2018-05-18T07:36:37.797Z,16.70
2018-05-18T07:40:10.289Z,15.07
2018-05-18T07:43:42.798Z,15.20
2018-05-18T07:47:16.047Z,15.93
2018-05-18T07:50:48.541Z,16.10
2018-05-18T07:54:21.026Z,14.60
2018-05-18T07:57:53.533Z,14.93
2018-05-18T08:01:26.020Z,13.03
2018-05-18T08:04:59.269Z,16.00
2018-05-18T08:08:31.759Z,15.13
2018-05-18T08:12:04.249Z,14.60
2018-05-18T08:15:36.744Z,14.80
2018-05-18T08:19:09.245Z,15.37
2018-05-18T08:22:41.766Z,14.10
2018-05-18T08:26:14.268Z,15.80
2018-05-18T08:29:46.754Z,15.37
2018-05-18T08:33:19.248Z,15.23
2018-05-18T08:36:51.757Z,14.73
2018-05-18T08:40:24.237Z,16.77
2018-05-18T08:43:57.497Z,16.33
2018-05-18T08:47:29.984Z,15.77
2018-05-18T08:51:02.465Z,16.03
2018-05-18T08:54:34.949Z,14.13
2018-05-18T08:58:07.437Z,17.73
2018-05-18T09:01:39.914Z,16.30
2018-05-18T09:05:12.413Z,17.17
2018-05-18T09:08:44.912Z,16.00
2018-05-18T09:12:17.398Z,14.20
2018-05-18T09:15:49.897Z,14.90
2018-05-18T09:19:22.372Z,16.17
2018-05-18T09:22:54.864Z,15.10
2018-05-18T09:26:27.357Z,16.07
2018-05-18T09:29:59.851Z,17.63
2018-05-18T09:33:32.333Z,17.10
2018-05-18T09:37:05.599Z,14.90
2018-05-18T09:40:38.842Z,16.70
2018-05-18T09:44:11.336Z,15.50
2018-05-18T09:47:43.816Z,14.37
2018-05-18T09:51:16.317Z,15.13
2018-05-18T09:54:48.940Z,15.33
2018-05-18T09:58:21.358Z,15.03
2018-05-18T10:01:53.832Z,15.00
2018-05-18T10:05:26.324Z,16.57
2018-05-18T10:08:58.811Z,16.70
2018-05-18T10:12:31.340Z,16.23
2018-05-18T10:16:03.801Z,16.07
2018-05-18T10:19:36.295Z,15.67
2018-05-18T10:23:09.549Z,18.33
2018-05-18T10:26:42.035Z,16.30
2018-05-18T10:30:14.532Z,17.27
2018-05-18T10:33:47.024Z,16.97
2018-05-18T10:37:19.512Z,16.27
2018-05-18T10:40:52.025Z,16.17
2018-05-18T10:44:24.507Z,16.17
2018-05-18T10:47:56.997Z,17.30
2018-05-18T10:51:29.473Z,16.53
2018-05-18T10:55:01.968Z,16.23
2018-05-18T10:58:34.449Z,18.37
2018-05-18T11:02:06.942Z,16.40
2018-05-18T11:05:40.199Z,17.03
2018-05-18T11:09:13.453Z,16.20
2018-05-18T11:12:45.941Z,18.10
2018-05-18T11:16:18.432Z,17.60
2018-05-18T11:19:50.924Z,18.20
2018-05-18T11:23:23.410Z,17.40
2018-05-18T11:26:55.909Z,15.30
2018-05-18T11:30:29.172Z,16.00
2018-05-18T11:34:01.667Z,16.57
2018-05-18T11:37:34.378Z,14.50
2018-05-18T11:41:06.901Z,17.03
2018-05-18T11:44:39.394Z,16.80
2018-05-18T11:48:11.966Z,16.40
2018-05-18T11:51:44.472Z,17.73
2018-05-18T11:55:16.974Z,16.07
2018-05-18T11:58:49.500Z,16.60
2018-05-18T12:02:22.372Z,16.30
2018-05-18T12:05:55.852Z,14.53
2018-05-18T12:09:28.327Z,14.90
2018-05-18T12:13:01.536Z,14.43
2018-05-18T12:16:34.029Z,14.87
2018-05-18T12:20:07.600Z,14.30
2018-05-18T12:23:40.089Z,13.90
2018-05-18T12:27:13.034Z,16.03
2018-05-18T12:30:45.652Z,14.80
2018-05-18T12:34:19.327Z,16.00
2018-05-18T12:37:52.681Z,15.03
2018-05-18T12:41:25.300Z,15.30
2018-05-18T12:44:58.557Z,13.53
2018-05-18T12:48:31.050Z,14.87
2018-05-18T12:52:03.530Z,15.07
2018-05-18T12:55:36.019Z,12.30
2018-05-18T12:59:08.516Z,14.13
2018-05-18T13:02:41.004Z,13.60
2018-05-18T13:06:14.270Z,13.60
2018-05-18T13:09:46.764Z,13.27
2018-05-18T13:13:20.141Z,15.60
2018-05-18T13:16:52.629Z,15.70
2018-05-18T13:20:25.137Z,12.30
2018-05-18T13:23:57.629Z,13.07
2018-05-18T13:27:30.117Z,14.80
2018-05-18T13:31:03.372Z,13.20
2018-05-18T13:34:35.855Z,13.67
2018-05-18T13:38:08.356Z,14.43
2018-05-18T13:41:40.853Z,12.97
2018-05-18T13:45:13.382Z,12.67
2018-05-18T13:48:45.882Z,12.30
2018-05-18T13:52:18.362Z,12.37
2018-05-18T13:55:50.852Z,10.60
2018-05-18T13:59:23.332Z,10.00
2018-05-18T14:02:55.879Z,11.50
2018-05-18T14:06:28.322Z,13.30
2018-05-18T14:10:00.823Z,11.67
2018-05-18T14:13:34.084Z,10.90
2018-05-18T14:17:06.560Z,12.67
2018-05-18T14:20:39.052Z,10.20
2018-05-18T14:24:12.334Z,11.27
2018-05-18T14:27:45.573Z,11.00
2018-05-18T14:31:18.064Z,10.67
2018-05-18T14:34:50.564Z,10.90
2018-05-18T14:38:23.032Z,11.50
2018-05-18T14:41:56.288Z,11.70
2018-05-18T14:45:28.772Z,11.90
2018-05-18T14:49:01.340Z,12.27
2018-05-18T14:52:33.756Z,11.70
2018-05-18T14:56:06.248Z,11.47
2018-05-18T14:59:38.744Z,10.30
2018-05-18T15:03:12.025Z,11.47
2018-05-18T15:06:44.528Z,10.30
2018-05-18T15:10:17.020Z,9.00
2018-05-18T15:13:50.286Z,9.57
2018-05-18T15:17:22.777Z,9.13
2018-05-18T15:20:55.273Z,11.57
2018-05-18T15:24:27.756Z,9.50
2018-05-18T15:28:00.255Z,10.07
2018-05-18T15:31:32.749Z,9.23
2018-05-18T15:35:05.237Z,9.17
2018-05-18T15:38:37.703Z,9.73
2018-05-18T15:42:10.961Z,9.77
2018-05-18T15:45:43.449Z,8.83
2018-05-18T15:49:15.964Z,8.13
2018-05-18T15:52:48.409Z,9.00
2018-05-18T15:56:20.896Z,8.47
2018-05-18T15:59:53.392Z,8.20
2018-05-18T16:03:25.881Z,9.77
2018-05-18T16:06:58.361Z,7.83
2018-05-18T16:10:30.825Z,7.57
2018-05-18T16:14:03.312Z,7.67
2018-05-18T16:17:35.784Z,8.67
2018-05-18T16:21:08.337Z,7.73
2018-05-18T16:24:40.765Z,7.47
2018-05-18T16:28:14.048Z,7.63
2018-05-18T16:31:46.513Z,6.63
2018-05-18T16:35:18.988Z,8.87
2018-05-18T16:38:51.468Z,9.43
2018-05-18T16:42:23.945Z,8.87
2018-05-18T16:45:56.428Z,8.57
2018-05-18T16:49:28.913Z,8.63
2018-05-18T16:53:01.402Z,8.97
2018-05-18T16:56:33.887Z,10.17
2018-05-18T17:00:06.375Z,8.93
2018-05-18T17:03:38.849Z,9.30
2018-05-18T17:07:11.337Z,9.10
2018-05-18T17:10:43.812Z,9.00
2018-05-18T17:14:16.391Z,10.00
2018-05-18T17:17:48.900Z,10.33
2018-05-18T17:21:21.398Z,9.03
2018-05-18T17:24:54.655Z,9.83
2018-05-18T17:28:27.141Z,9.93
2018-05-18T17:31:59.630Z,9.73
2018-05-18T17:35:32.119Z,10.67
2018-05-18T17:39:05.477Z,11.13
2018-05-18T17:42:38.019Z,10.47
2018-05-18T17:46:10.448Z,9.83
2018-05-18T17:49:42.942Z,14.77
2018-05-18T17:53:15.489Z,10.47
2018-05-18T17:56:48.789Z,11.00
2018-05-18T18:00:21.280Z,10.03
2018-05-18T18:03:53.771Z,10.17
2018-05-18T18:07:26.265Z,10.10
2018-05-18T18:10:58.756Z,11.23
2018-05-18T18:14:31.272Z,11.57
2018-05-18T18:18:03.759Z,11.10
2018-05-18T18:21:36.236Z,10.37
2018-05-18T18:25:08.717Z,9.07
2018-05-18T18:28:41.223Z,9.90
2018-05-18T18:32:14.458Z,10.20
2018-05-18T18:35:46.949Z,10.27
2018-05-18T18:39:19.440Z,11.13
2018-05-18T18:42:51.925Z,11.73
2018-05-18T18:46:24.403Z,10.50
2018-05-18T18:49:56.895Z,10.07
2018-05-18T18:53:29.389Z,10.50
2018-05-18T18:57:01.875Z,10.90
2018-05-18T19:00:35.150Z,10.20
2018-05-18T19:04:07.636Z,11.00
2018-05-18T19:07:40.149Z,10.50
2018-05-18T19:11:13.398Z,9.67
2018-05-18T19:14:45.885Z,10.13
2018-05-18T19:18:18.704Z,11.00
2018-05-18T19:21:51.261Z,10.37
2018-05-18T19:25:24.464Z,9.60
2018-05-18T19:28:56.952Z,9.77
2018-05-18T19:32:29.424Z,9.97
2018-05-18T19:36:01.912Z,9.20
2018-05-18T19:39:34.405Z,10.73
2018-05-18T19:43:06.890Z,11.90
2018-05-18T19:46:39.406Z,10.80
2018-05-18T19:50:12.656Z,11.03
2018-05-18T19:53:45.133Z,10.23
2018-05-18T19:57:17.626Z,12.40
2018-05-18T20:00:50.124Z,11.03
2018-05-18T20:04:22.616Z,10.50
2018-05-18T20:07:55.097Z,11.90
2018-05-18T20:11:27.599Z,10.20
2018-05-18T20:15:00.852Z,10.63
2018-05-18T20:18:33.321Z,9.07
2018-05-18T20:22:05.814Z,9.50
2018-05-18T20:25:38.301Z,11.83
2018-05-18T20:29:10.792Z,10.70
2018-05-18T20:32:43.272Z,11.20
2018-05-18T20:36:15.780Z,10.03
2018-05-18T20:39:48.261Z,11.00
2018-05-18T20:43:21.527Z,11.30
2018-05-18T20:46:54.025Z,11.33
2018-05-18T20:50:26.525Z,11.40
2018-05-18T20:53:59.787Z,11.43
2018-05-18T20:57:32.264Z,11.93
2018-05-18T21:01:04.755Z,10.80
2018-05-18T21:04:37.260Z,12.53
2018-05-18T21:08:09.744Z,12.37
2018-05-18T21:11:42.239Z,11.83
2018-05-18T21:15:15.492Z,10.40
2018-05-18T21:18:47.970Z,13.67
2018-05-18T21:22:20.448Z,12.70
2018-05-18T21:25:52.940Z,10.90
2018-05-18T21:29:25.428Z,10.97
2018-05-18T21:32:57.900Z,11.40
2018-05-18T21:36:30.388Z,11.13
2018-05-18T21:40:02.875Z,12.33
2018-05-18T21:43:35.352Z,11.87
2018-05-18T21:47:07.845Z,11.13
2018-05-18T21:50:40.336Z,12.17
2018-05-18T21:54:12.823Z,11.30
2018-05-18T21:57:45.309Z,10.40
2018-05-18T22:01:18.605Z,10.37
2018-05-18T22:04:51.072Z,15.13
2018-05-18T22:08:23.547Z,13.40
2018-05-18T22:11:56.052Z,14.90
2018-05-18T22:15:28.536Z,15.97
2018-05-18T22:19:01.018Z,14.37
2018-05-18T22:22:33.491Z,15.50
2018-05-18T22:26:05.972Z,14.57
2018-05-18T22:29:38.461Z,14.57
2018-05-18T22:33:10.935Z,13.60
2018-05-18T22:36:43.423Z,14.93
2018-05-18T22:40:15.908Z,14.90
2018-05-18T22:43:48.388Z,15.03
2018-05-18T22:47:20.869Z,14.60
2018-05-18T22:50:53.357Z,13.07
2018-05-18T22:54:25.836Z,14.83
2018-05-18T22:57:58.317Z,14.83
2018-05-18T23:01:30.808Z,15.57
2018-05-18T23:05:03.290Z,14.93
2018-05-18T23:08:36.542Z,13.87
2018-05-18T23:12:09.021Z,15.23
2018-05-18T23:15:41.505Z,13.37
2018-05-18T23:19:13.989Z,13.17
2018-05-18T23:22:46.466Z,15.50
2018-05-18T23:26:18.951Z,14.90
2018-05-18T23:29:51.432Z,15.40
2018-05-18T23:33:23.908Z,16.13
2018-05-18T23:36:56.388Z,14.67
2018-05-18T23:40:28.876Z,15.03
2018-05-18T23:44:01.360Z,15.93
2018-05-18T23:47:33.835Z,14.40
2018-05-18T23:51:06.316Z,14.70
2018-05-18T23:54:38.834Z,14.20
2018-05-18T23:58:11.320Z,15.77
